Time;durP1;ratioP1;P1;durP2;ratioP2;P2;SDS_P1;SDS_P2;PMS_P1;PMS_P2;Temp;Humidity;BMP_temperature;BMP_pressure;BME280_temperature;BME280_humidity;BME280_pressure;Samples;Min_cycle;Max_cycle;Signal;HPM_P1;HPM_P2
2023/01/09 00:00:53;;;;;;;1.67;0.80;;;8.20;99.90;;;;;;5074205;28;20420;-56
2023/01/09 00:03:20;;;;;;;1.10;0.80;;;8.30;99.90;;;;;;5073031;28;20534;-55
2023/01/09 00:05:47;;;;;;;1.05;0.80;;;8.30;99.90;;;;;;5073748;28;20565;-55
2023/01/09 00:08:14;;;;;;;1.00;0.80;;;8.30;99.90;;;;;;5073915;28;20427;-57
2023/01/09 00:10:42;;;;;;;1.20;0.80;;;8.30;99.90;;;;;;5073262;28;20719;-57
2023/01/09 00:13:11;;;;;;;1.50;0.80;;;8.30;99.90;;;;;;5072179;28;20430;-57
2023/01/09 00:15:40;;;;;;;1.70;0.80;;;8.30;99.90;;;;;;5074313;28;20423;-57
2023/01/09 00:18:08;;;;;;;1.30;0.80;;;8.40;99.90;;;;;;5072858;28;20481;-57
2023/01/09 00:20:36;;;;;;;1.10;0.70;;;8.30;99.90;;;;;;5072501;28;20886;-57
2023/01/09 00:23:04;;;;;;;1.00;0.70;;;8.30;99.90;;;;;;5072524;28;20823;-56
2023/01/09 00:25:31;;;;;;;1.00;0.70;;;8.30;99.90;;;;;;5073288;28;20415;-54
2023/01/09 00:27:58;;;;;;;1.00;0.60;;;8.40;99.90;;;;;;5072905;28;20529;-55
2023/01/09 00:30:26;;;;;;;0.93;0.65;;;8.40;99.90;;;;;;5073739;28;20423;-56
2023/01/09 00:32:56;;;;;;;0.93;0.60;;;8.50;99.90;;;;;;5072943;28;20449;-53
2023/01/09 00:35:25;;;;;;;0.80;0.60;;;8.50;99.90;;;;;;5073824;28;20888;-56
2023/01/09 00:37:52;;;;;;;0.90;0.60;;;8.40;99.90;;;;;;5073164;28;20926;-54
2023/01/09 00:40:20;;;;;;;0.90;0.60;;;8.40;99.90;;;;;;5073630;28;20430;-56
2023/01/09 00:42:51;;;;;;;0.80;0.40;;;8.50;99.90;;;;;;5073879;28;20448;-56
2023/01/09 00:45:27;;;;;;;0.80;0.50;;;8.50;99.90;;;;;;5073736;28;20420;-57
2023/01/09 00:47:59;;;;;;;0.80;0.50;;;8.50;99.90;;;;;;5073489;28;20839;-59
2023/01/09 00:50:30;;;;;;;0.80;0.50;;;8.50;99.90;;;;;;5074263;28;20430;-56
2023/01/09 00:53:03;;;;;;;0.80;0.60;;;8.50;99.90;;;;;;5073755;28;20500;-56
2023/01/09 00:55:31;;;;;;;1.43;0.60;;;8.50;99.90;;;;;;5072634;28;20573;-56
2023/01/09 00:57:58;;;;;;;0.90;0.57;;;8.40;99.90;;;;;;5072731;28;20427;-57
2023/01/09 01:00:25;;;;;;;0.88;0.60;;;8.50;99.90;;;;;;5073618;28;20730;-56
2023/01/09 01:02:52;;;;;;;1.00;0.40;;;8.40;99.90;;;;;;5074007;28;20487;-57
2023/01/09 01:08:11;;;;;;;1.00;0.40;;;8.40;99.90;;;;;;5076249;28;20715;-56
2023/01/09 01:10:38;;;;;;;0.60;0.40;;;8.50;99.90;;;;;;5076493;28;20831;-57
2023/01/09 01:13:05;;;;;;;0.50;0.30;;;8.60;99.90;;;;;;5076815;28;20427;-58
2023/01/09 01:15:32;;;;;;;0.40;0.28;;;8.70;99.90;;;;;;5076851;28;20491;-58
2023/01/09 01:18:00;;;;;;;0.50;0.25;;;8.70;99.90;;;;;;5075081;28;20429;-57
2023/01/09 01:20:28;;;;;;;0.50;0.30;;;8.70;99.90;;;;;;5075507;28;20416;-55
2023/01/09 01:22:55;;;;;;;0.60;0.30;;;8.60;99.90;;;;;;5076558;28;20753;-56
2023/01/09 01:25:23;;;;;;;0.40;0.20;;;8.50;99.90;;;;;;5075986;28;20459;-54
2023/01/09 01:27:50;;;;;;;0.40;0.25;;;8.60;99.90;;;;;;5077485;28;20430;-56
2023/01/09 01:30:18;;;;;;;0.50;0.20;;;8.60;99.90;;;;;;5077640;28;20434;-54
2023/01/09 01:32:46;;;;;;;0.40;0.20;;;8.60;99.90;;;;;;5076699;28;20438;-56
2023/01/09 01:35:13;;;;;;;1.10;0.20;;;8.70;99.90;;;;;;5076233;28;20420;-55
2023/01/09 01:37:42;;;;;;;0.40;0.20;;;8.70;99.90;;;;;;5076470;28;20522;-54
2023/01/09 01:40:11;;;;;;;0.40;0.20;;;8.70;99.90;;;;;;5075487;28;20420;-57
2023/01/09 01:42:46;;;;;;;0.30;0.20;;;8.70;99.90;;;;;;5077511;28;20434;-56
2023/01/09 01:45:15;;;;;;;0.40;0.20;;;8.50;99.90;;;;;;5075627;28;20514;-56
2023/01/09 01:47:48;;;;;;;0.40;0.20;;;8.50;99.90;;;;;;5075119;28;20541;-58
2023/01/09 01:50:21;;;;;;;0.40;0.20;;;8.50;99.90;;;;;;5076524;28;20424;-59
2023/01/09 01:52:55;;;;;;;0.30;0.10;;;8.40;99.90;;;;;;5077103;28;20474;-55
2023/01/09 01:55:23;;;;;;;0.30;0.10;;;8.40;99.90;;;;;;5077094;28;20490;-59
2023/01/09 01:57:55;;;;;;;0.40;0.20;;;8.30;99.90;;;;;;5076259;28;20750;-58
2023/01/09 02:10:12;;;;;;;0.35;0.20;;;8.40;99.90;;;;;;5071074;28;20427;-58
2023/01/09 02:12:39;;;;;;;0.40;0.20;;;8.40;99.90;;;;;;5075136;28;20429;-56
2023/01/09 02:15:09;;;;;;;0.40;0.20;;;8.40;99.90;;;;;;5076395;28;20455;-57
2023/01/09 02:18:06;;;;;;;0.80;0.13;;;8.40;99.90;;;;;;5075150;28;20514;-57
2023/01/09 02:20:46;;;;;;;0.40;0.20;;;8.40;99.90;;;;;;5075603;28;20426;-57
2023/01/09 02:23:57;;;;;;;0.30;0.20;;;8.40;99.90;;;;;;5075901;28;20434;-58
2023/01/09 02:26:56;;;;;;;0.30;0.10;;;8.40;99.90;;;;;;5075762;28;20419;-58
2023/01/09 02:29:59;;;;;;;0.30;0.10;;;8.40;99.90;;;;;;5056426;28;20427;-56
2023/01/09 02:32:41;;;;;;;0.50;0.20;;;8.40;99.90;;;;;;5075589;28;20509;-57
2023/01/09 02:35:23;;;;;;;0.90;0.10;;;8.40;99.90;;;;;;5075897;28;20514;-58
2023/01/09 02:37:58;;;;;;;0.38;0.20;;;8.40;99.90;;;;;;5075944;28;20572;-58
2023/01/09 02:40:29;;;;;;;0.30;0.10;;;8.30;99.90;;;;;;5076287;28;20475;-57
2023/01/09 02:42:59;;;;;;;0.32;0.10;;;8.30;99.90;;;;;;5074769;28;20514;-57
2023/01/09 02:45:26;;;;;;;0.50;0.20;;;8.30;99.90;;;;;;5075104;28;20423;-55
2023/01/09 02:47:54;;;;;;;0.30;0.10;;;8.30;99.90;;;;;;5075505;28;20455;-53
2023/01/09 02:50:24;;;;;;;1.60;0.20;;;8.20;99.90;;;;;;5076246;28;20587;-56
2023/01/09 02:53:17;;;;;;;0.30;0.10;;;8.20;99.90;;;;;;5073960;28;20439;-57
2023/01/09 02:56:09;;;;;;;0.30;0.10;;;8.10;99.90;;;;;;5076269;28;20412;-56
2023/01/09 02:59:10;;;;;;;0.30;0.10;;;8.10;99.90;;;;;;5074692;28;20459;-58
2023/01/09 03:01:46;;;;;;;0.60;0.10;;;8.20;99.90;;;;;;5074821;28;20518;-57
2023/01/09 03:04:22;;;;;;;0.30;0.10;;;8.20;99.90;;;;;;5074977;28;20436;-57
2023/01/09 03:06:58;;;;;;;0.30;0.13;;;8.20;99.90;;;;;;5075136;28;20412;-57
2023/01/09 03:09:29;;;;;;;0.90;0.10;;;8.20;99.90;;;;;;5074057;28;20462;-56
2023/01/09 03:12:01;;;;;;;0.40;0.20;;;8.20;99.90;;;;;;5072952;28;20510;-56
2023/01/09 03:14:32;;;;;;;0.30;0.17;;;8.30;99.90;;;;;;5073990;28;20466;-52
2023/01/09 03:17:03;;;;;;;0.40;0.10;;;8.40;99.90;;;;;;5074312;28;20506;-55
2023/01/09 03:19:34;;;;;;;0.38;0.10;;;8.40;99.90;;;;;;5074097;28;20475;-54
2023/01/09 03:22:02;;;;;;;0.30;0.10;;;8.30;99.90;;;;;;5075434;28;20423;-54
2023/01/09 03:24:29;;;;;;;0.40;0.10;;;8.30;99.90;;;;;;5074502;28;20431;-55
2023/01/09 03:26:56;;;;;;;0.30;0.10;;;8.30;99.90;;;;;;5075231;28;20503;-57
2023/01/09 03:29:23;;;;;;;0.30;0.10;;;8.10;99.90;;;;;;5074843;28;20542;-57
2023/01/09 03:31:50;;;;;;;0.30;0.10;;;8.10;99.90;;;;;;5074903;28;20509;-57
2023/01/09 03:34:18;;;;;;;0.40;0.10;;;8.10;99.90;;;;;;5074703;28;20826;-57
2023/01/09 03:36:46;;;;;;;0.30;0.10;;;8.00;99.90;;;;;;5074309;28;20526;-59
2023/01/09 03:39:14;;;;;;;0.30;0.10;;;8.10;99.90;;;;;;5075272;28;20423;-56
2023/01/09 03:41:41;;;;;;;0.30;0.10;;;8.10;99.90;;;;;;5074632;28;20758;-57
2023/01/09 03:44:08;;;;;;;0.70;0.10;;;8.10;99.90;;;;;;5074440;28;20445;-58
2023/01/09 03:46:35;;;;;;;0.30;0.10;;;8.10;99.90;;;;;;5074648;28;20426;-57
2023/01/09 03:49:02;;;;;;;0.30;0.10;;;8.20;99.90;;;;;;5074468;28;20423;-57
2023/01/09 03:51:30;;;;;;;0.30;0.10;;;8.10;99.90;;;;;;5074397;28;20424;-58
2023/01/09 03:53:58;;;;;;;0.30;0.10;;;8.10;99.90;;;;;;5074497;28;20525;-58
2023/01/09 03:56:25;;;;;;;0.30;0.10;;;8.00;99.90;;;;;;5074050;28;20423;-53
2023/01/09 03:58:52;;;;;;;0.30;0.10;;;8.00;99.90;;;;;;5073575;28;20434;-55
2023/01/09 04:01:20;;;;;;;0.30;0.10;;;8.00;99.90;;;;;;5074324;28;20785;-55
2023/01/09 04:03:47;;;;;;;0.30;0.10;;;8.00;99.90;;;;;;5074039;28;20476;-55
2023/01/09 04:06:14;;;;;;;0.30;0.10;;;8.00;99.90;;;;;;5074904;28;20427;-58
2023/01/09 04:08:41;;;;;;;0.30;0.10;;;8.20;99.90;;;;;;5073316;28;20506;-57
2023/01/09 04:11:10;;;;;;;0.30;0.10;;;8.30;99.90;;;;;;5074703;28;20430;-53
2023/01/09 04:13:37;;;;;;;0.40;0.10;;;8.20;99.90;;;;;;5074584;28;20427;-57
2023/01/09 04:16:05;;;;;;;0.50;0.10;;;8.30;99.90;;;;;;5074745;28;20793;-56
2023/01/09 04:18:32;;;;;;;0.30;0.10;;;8.20;99.90;;;;;;5073967;28;20501;-58
2023/01/09 04:20:59;;;;;;;0.30;0.10;;;8.10;99.90;;;;;;5074236;28;20915;-58
2023/01/09 04:23:27;;;;;;;0.30;0.10;;;8.00;99.90;;;;;;5073867;28;20843;-55
2023/01/09 04:25:54;;;;;;;1.10;0.10;;;8.00;99.90;;;;;;5074384;28;20412;-57
2023/01/09 04:28:23;;;;;;;0.30;0.10;;;8.00;99.90;;;;;;5074716;28;21009;-58
2023/01/09 04:30:50;;;;;;;0.30;0.10;;;8.00;99.90;;;;;;5073371;28;20415;-58
2023/01/09 04:33:17;;;;;;;0.40;0.10;;;8.00;99.90;;;;;;5074146;28;20427;-57
2023/01/09 04:35:45;;;;;;;0.30;0.10;;;7.90;99.90;;;;;;5073966;28;20426;-57
2023/01/09 04:38:12;;;;;;;0.30;0.10;;;7.90;99.90;;;;;;5074034;28;20891;-57
2023/01/09 04:40:39;;;;;;;0.30;0.10;;;8.00;99.90;;;;;;5074700;28;20430;-58
2023/01/09 04:43:07;;;;;;;0.30;0.10;;;8.10;99.90;;;;;;5077828;28;20510;-57
2023/01/09 04:45:35;;;;;;;0.30;0.10;;;8.00;99.90;;;;;;5077874;28;20437;-58
2023/01/09 04:48:02;;;;;;;0.30;0.10;;;7.90;99.90;;;;;;5077962;28;20492;-58
2023/01/09 04:50:30;;;;;;;0.30;0.10;;;7.90;99.90;;;;;;5077398;28;20411;-58
2023/01/09 04:52:57;;;;;;;0.30;0.10;;;7.90;99.90;;;;;;5077468;28;20466;-58
2023/01/09 04:55:24;;;;;;;0.30;0.10;;;8.00;99.90;;;;;;5077911;28;20426;-58
2023/01/09 04:57:51;;;;;;;0.30;0.10;;;8.00;99.90;;;;;;5077948;28;20765;-58
2023/01/09 05:00:19;;;;;;;0.30;0.10;;;8.00;99.90;;;;;;5078233;28;20454;-58
2023/01/09 05:02:47;;;;;;;0.30;0.10;;;7.80;99.90;;;;;;5077695;28;20455;-58
2023/01/09 05:05:14;;;;;;;0.30;0.10;;;7.70;99.90;;;;;;5076585;28;20442;-56
2023/01/09 05:07:42;;;;;;;0.30;0.10;;;7.70;99.90;;;;;;5071162;28;20886;-58
2023/01/09 05:10:11;;;;;;;0.30;0.10;;;7.60;99.90;;;;;;5076372;28;20431;-58
2023/01/09 05:12:38;;;;;;;0.50;0.10;;;7.60;99.90;;;;;;5076649;28;20829;-58
2023/01/09 05:15:08;;;;;;;0.30;0.10;;;7.60;99.90;;;;;;5071948;28;20445;-57
2023/01/09 05:17:35;;;;;;;0.50;0.10;;;7.50;99.90;;;;;;5065271;28;20489;-57
2023/01/09 05:20:04;;;;;;;0.30;0.10;;;7.40;99.90;;;;;;5075767;28;20521;-57
2023/01/09 05:22:31;;;;;;;0.30;0.10;;;7.50;99.90;;;;;;5076575;28;20494;-57
2023/01/09 05:24:58;;;;;;;0.70;0.10;;;7.50;99.90;;;;;;5074035;28;20435;-57
2023/01/09 05:27:26;;;;;;;0.30;0.10;;;7.60;99.90;;;;;;5076056;28;20961;-57
2023/01/09 05:29:53;;;;;;;0.40;0.10;;;7.60;99.90;;;;;;5076650;28;20438;-57
2023/01/09 05:32:20;;;;;;;0.40;0.20;;;7.70;99.90;;;;;;5076947;28;20420;-57
2023/01/09 05:34:47;;;;;;;0.40;0.20;;;7.70;99.90;;;;;;5076451;28;20847;-56
2023/01/09 05:37:16;;;;;;;0.30;0.10;;;7.70;99.90;;;;;;5076241;28;20546;-57
2023/01/09 05:39:43;;;;;;;0.30;0.10;;;7.80;99.90;;;;;;5076156;28;20429;-57
2023/01/09 05:42:10;;;;;;;0.47;0.10;;;7.60;99.90;;;;;;5075977;28;20858;-57
2023/01/09 05:44:37;;;;;;;0.40;0.10;;;7.40;99.90;;;;;;5075761;28;20467;-56
2023/01/09 05:47:04;;;;;;;0.90;0.10;;;7.20;99.90;;;;;;5074859;28;20506;-57
2023/01/09 05:49:32;;;;;;;0.30;0.10;;;7.30;99.90;;;;;;5075372;28;20502;-58
2023/01/09 05:51:59;;;;;;;0.30;0.10;;;7.30;99.90;;;;;;5074740;28;20848;-58
2023/01/09 05:54:27;;;;;;;0.30;0.10;;;7.20;99.90;;;;;;5074926;28;20434;-58
2023/01/09 05:56:55;;;;;;;0.70;0.20;;;7.10;99.90;;;;;;5074797;28;20470;-58
2023/01/09 05:59:22;;;;;;;0.40;0.10;;;7.00;99.90;;;;;;5073937;28;20522;-58
2023/01/09 06:01:49;;;;;;;0.90;0.10;;;6.90;99.90;;;;;;5075952;28;20510;-59
2023/01/09 06:04:16;;;;;;;0.30;0.10;;;6.90;99.90;;;;;;5075286;28;20821;-58
2023/01/09 06:06:44;;;;;;;0.40;0.10;;;6.80;99.90;;;;;;5073620;28;20514;-58
2023/01/09 06:09:11;;;;;;;0.30;0.10;;;6.70;99.90;;;;;;5074604;28;20847;-58
2023/01/09 06:11:40;;;;;;;0.40;0.10;;;6.70;99.90;;;;;;5074831;28;20843;-58
2023/01/09 06:14:07;;;;;;;0.90;0.10;;;6.60;99.90;;;;;;5074538;28;20427;-58
2023/01/09 06:16:34;;;;;;;0.30;0.10;;;6.60;99.90;;;;;;5075548;28;20458;-60
2023/01/09 06:19:02;;;;;;;0.50;0.10;;;6.60;99.90;;;;;;5075387;28;20489;-59
2023/01/09 06:21:29;;;;;;;0.40;0.13;;;6.50;99.90;;;;;;5073476;28;20514;-61
2023/01/09 06:23:56;;;;;;;0.60;0.10;;;6.50;99.90;;;;;;5073441;28;20423;-59
2023/01/09 06:26:23;;;;;;;0.40;0.10;;;6.40;99.90;;;;;;5073280;28;20595;-57
2023/01/09 06:28:54;;;;;;;0.60;0.20;;;6.30;99.90;;;;;;5072679;28;20435;-59
2023/01/09 06:31:21;;;;;;;0.60;0.10;;;6.20;99.90;;;;;;5073748;28;20438;-60
2023/01/09 06:33:49;;;;;;;0.40;0.10;;;6.20;99.90;;;;;;5073504;28;20872;-60
2023/01/09 06:36:16;;;;;;;0.40;0.10;;;6.30;99.90;;;;;;5073859;28;20778;-59
2023/01/09 06:38:43;;;;;;;0.40;0.20;;;6.30;99.90;;;;;;5074109;28;20441;-58
2023/01/09 06:41:11;;;;;;;0.40;0.10;;;6.20;99.90;;;;;;5073582;28;20526;-59
2023/01/09 06:43:38;;;;;;;0.30;0.10;;;6.10;99.90;;;;;;5073307;28;20513;-59
2023/01/09 06:46:06;;;;;;;0.30;0.10;;;6.10;99.90;;;;;;5072890;28;20741;-59
2023/01/09 06:48:34;;;;;;;0.30;0.10;;;6.00;99.90;;;;;;5073803;28;21054;-59
2023/01/09 06:51:01;;;;;;;0.40;0.20;;;6.00;99.90;;;;;;5072192;28;20423;-59
2023/01/09 06:53:28;;;;;;;0.50;0.20;;;6.10;99.90;;;;;;5070409;28;20438;-59
2023/01/09 06:55:55;;;;;;;0.50;0.20;;;6.20;99.90;;;;;;5064952;28;20482;-59
2023/01/09 06:58:23;;;;;;;1.10;0.30;;;6.20;99.90;;;;;;5067233;28;20516;-57
2023/01/09 07:00:52;;;;;;;0.80;0.25;;;6.20;99.90;;;;;;5064619;28;20460;-59
2023/01/09 07:03:21;;;;;;;0.65;0.22;;;6.20;99.90;;;;;;5050078;28;20825;-59
2023/01/09 07:05:49;;;;;;;0.93;0.35;;;6.10;99.90;;;;;;5063273;28;20428;-58
2023/01/09 07:08:17;;;;;;;0.90;0.20;;;6.20;99.90;;;;;;5066061;28;20487;-58
2023/01/09 07:10:44;;;;;;;0.70;0.20;;;6.30;99.90;;;;;;5068943;28;20514;-59
2023/01/09 07:13:12;;;;;;;1.00;0.20;;;6.20;99.90;;;;;;5071225;28;20915;-59
2023/01/09 07:15:39;;;;;;;0.50;0.20;;;6.20;99.90;;;;;;5069593;28;20424;-58
2023/01/09 07:18:06;;;;;;;0.50;0.20;;;6.20;99.90;;;;;;5071735;28;20490;-58
2023/01/09 07:20:35;;;;;;;0.90;0.20;;;6.20;99.90;;;;;;5056139;28;20427;-58
2023/01/09 07:23:02;;;;;;;0.40;0.20;;;6.20;99.90;;;;;;5059534;28;20426;-57
2023/01/09 07:25:29;;;;;;;0.43;0.20;;;6.10;99.90;;;;;;5071972;28;20432;-58
2023/01/09 07:27:56;;;;;;;0.90;0.20;;;6.10;99.90;;;;;;5072295;28;20516;-58
2023/01/09 07:30:23;;;;;;;0.50;0.20;;;6.10;99.90;;;;;;5070697;28;20507;-58
2023/01/09 07:32:51;;;;;;;0.70;0.20;;;6.20;99.90;;;;;;5071610;28;20873;-59
2023/01/09 07:35:18;;;;;;;0.40;0.15;;;6.40;99.90;;;;;;5061913;28;20511;-59
2023/01/09 07:37:48;;;;;;;0.80;0.20;;;6.40;99.90;;;;;;5053593;28;20421;-59
2023/01/09 07:40:15;;;;;;;0.80;0.17;;;6.50;99.90;;;;;;5066795;28;20462;-59
2023/01/09 07:42:42;;;;;;;1.27;0.20;;;6.50;99.90;;;;;;5072241;28;20443;-59
2023/01/09 07:45:10;;;;;;;0.90;0.20;;;6.40;99.90;;;;;;5058703;28;20487;-60
2023/01/09 07:47:40;;;;;;;0.80;0.20;;;6.30;99.90;;;;;;5052414;28;20795;-57
2023/01/09 07:50:08;;;;;;;1.10;0.20;;;6.20;99.90;;;;;;5051835;28;20440;-59
2023/01/09 07:52:35;;;;;;;0.50;0.20;;;6.20;99.90;;;;;;5051739;28;20429;-58
2023/01/09 07:55:05;;;;;;;1.13;0.20;;;6.20;99.90;;;;;;5050920;28;20429;-58
2023/01/09 07:57:32;;;;;;;0.80;0.20;;;6.40;99.90;;;;;;5051349;28;20516;-59
2023/01/09 08:00:02;;;;;;;0.38;0.17;;;6.40;99.90;;;;;;5062574;28;20519;-58
2023/01/09 08:02:29;;;;;;;1.50;0.20;;;6.30;99.90;;;;;;5073252;28;20424;-58
2023/01/09 08:04:56;;;;;;;0.80;0.20;;;6.20;99.90;;;;;;5062994;28;20440;-58
2023/01/09 08:07:23;;;;;;;1.45;0.40;;;6.20;99.90;;;;;;5052291;28;20421;-55
2023/01/09 08:09:50;;;;;;;0.50;0.20;;;6.30;99.90;;;;;;5052378;28;20433;-56
2023/01/09 08:12:19;;;;;;;1.20;0.20;;;6.30;99.90;;;;;;5071868;28;20423;-56
2023/01/09 08:14:46;;;;;;;0.50;0.20;;;6.50;99.90;;;;;;5072101;28;20427;-54
2023/01/09 08:17:13;;;;;;;0.40;0.10;;;6.40;99.90;;;;;;5064683;28;20437;-56
2023/01/09 08:19:42;;;;;;;0.70;0.30;;;6.50;99.90;;;;;;5061551;28;20532;-50
2023/01/09 08:22:10;;;;;;;0.40;0.20;;;6.60;99.90;;;;;;5063652;28;20457;-49
2023/01/09 08:24:37;;;;;;;0.50;0.20;;;6.90;99.90;;;;;;5056618;28;20421;-47
2023/01/09 08:27:04;;;;;;;1.10;0.40;;;6.90;99.90;;;;;;5062445;28;20486;-52
2023/01/09 08:29:33;;;;;;;0.50;0.20;;;6.90;99.90;;;;;;5076896;28;20431;-52
2023/01/09 08:32:00;;;;;;;0.80;0.20;;;6.80;99.90;;;;;;5059179;28;20427;-50
2023/01/09 08:34:29;;;;;;;0.50;0.15;;;6.90;99.90;;;;;;5056830;28;20459;-52
2023/01/09 08:36:57;;;;;;;0.90;0.20;;;7.00;99.90;;;;;;5061469;28;20701;-50
2023/01/09 08:39:24;;;;;;;0.60;0.20;;;7.00;99.90;;;;;;5072820;28;20466;-48
2023/01/09 08:47:24;;;;;;;0.70;0.20;;;7.20;99.90;;;;;;5063458;28;20433;-51
2023/01/09 08:49:51;;;;;;;0.40;0.10;;;7.20;99.90;;;;;;5075696;28;20427;-49
2023/01/09 08:52:18;;;;;;;0.45;0.20;;;7.10;99.90;;;;;;5074702;28;20438;-48
2023/01/09 08:54:45;;;;;;;0.40;0.20;;;7.00;99.90;;;;;;5069809;28;20439;-57
2023/01/09 08:57:13;;;;;;;1.63;0.17;;;7.00;99.90;;;;;;5074370;28;20936;-57
2023/01/09 08:59:41;;;;;;;0.40;0.20;;;7.00;99.90;;;;;;5074864;28;20439;-58
2023/01/09 09:02:10;;;;;;;1.00;0.20;;;7.00;99.90;;;;;;5074574;28;20499;-56
2023/01/09 09:04:37;;;;;;;0.60;0.10;;;7.00;99.90;;;;;;5071391;28;20441;-57
2023/01/09 09:07:04;;;;;;;0.40;0.20;;;7.00;99.90;;;;;;5069847;28;20457;-58
2023/01/09 09:09:31;;;;;;;0.70;0.20;;;7.10;99.90;;;;;;5069520;28;20538;-57
2023/01/09 09:11:58;;;;;;;0.80;0.20;;;7.20;99.90;;;;;;5075774;28;20431;-58
2023/01/09 09:17:12;;;;;;;0.60;0.20;;;7.40;99.90;;;;;;5074792;28;20419;-55
2023/01/09 09:19:41;;;;;;;2.87;0.20;;;7.50;99.90;;;;;;5076584;28;20574;-57
2023/01/09 09:22:08;;;;;;;0.90;0.30;;;7.60;99.90;;;;;;5075201;28;20715;-57
2023/01/09 09:24:35;;;;;;;0.68;0.20;;;7.60;99.90;;;;;;5073607;28;20435;-57
2023/01/09 09:27:03;;;;;;;1.50;0.20;;;7.70;99.90;;;;;;5067169;28;20544;-55
2023/01/09 09:29:30;;;;;;;0.70;0.20;;;7.70;99.90;;;;;;5055366;28;20433;-55
2023/01/09 09:31:58;;;;;;;0.70;0.20;;;7.70;99.90;;;;;;5069351;28;20424;-56
2023/01/09 09:34:26;;;;;;;1.50;0.20;;;7.80;99.90;;;;;;5074557;28;20783;-56
2023/01/09 09:36:54;;;;;;;0.70;0.30;;;7.70;99.90;;;;;;5075322;28;20577;-57
2023/01/09 09:39:21;;;;;;;0.40;0.20;;;7.80;99.90;;;;;;5072582;28;20463;-57
2023/01/09 09:45:04;;;;;;;0.47;0.20;;;7.90;99.90;;;;;;5054987;28;20462;-57
2023/01/09 09:47:52;;;;;;;0.40;0.20;;;7.90;99.90;;;;;;5060303;28;20454;-56
2023/01/09 09:50:45;;;;;;;0.40;0.20;;;8.00;99.90;;;;;;5072918;28;20427;-57
2023/01/09 09:53:18;;;;;;;0.50;0.20;;;8.10;99.90;;;;;;5062080;28;20911;-56
2023/01/09 09:55:48;;;;;;;0.70;0.30;;;8.30;99.90;;;;;;5054205;28;20484;-57
2023/01/09 09:58:21;;;;;;;1.10;0.20;;;8.30;99.90;;;;;;5056722;28;20429;-56
2023/01/09 10:00:50;;;;;;;0.50;0.20;;;8.40;99.90;;;;;;5054339;28;20431;-58
2023/01/09 10:03:26;;;;;;;0.50;0.25;;;8.50;99.90;;;;;;5064005;28;20786;-58
2023/01/09 10:05:57;;;;;;;1.17;0.30;;;8.60;99.90;;;;;;5070894;28;20436;-57
2023/01/09 10:08:36;;;;;;;1.98;0.30;;;8.70;99.90;;;;;;5059192;28;20514;-55
2023/01/09 10:11:05;;;;;;;0.98;0.20;;;8.70;99.90;;;;;;5071307;28;20482;-54
2023/01/09 10:16:27;;;;;;;0.40;0.10;;;8.70;99.90;;;;;;5060775;28;20390;-53
2023/01/09 10:19:08;;;;;;;0.60;0.20;;;9.20;99.90;;;;;;5064634;28;20463;-57
2023/01/09 10:21:43;;;;;;;1.00;0.20;;;9.70;99.90;;;;;;5070984;28;20419;-54
2023/01/09 10:24:27;;;;;;;0.70;0.20;;;9.60;99.90;;;;;;5063247;28;20542;-56
2023/01/09 10:26:55;;;;;;;0.50;0.20;;;9.40;99.90;;;;;;5069724;28;20515;-57
2023/01/09 10:29:37;;;;;;;0.70;0.20;;;9.00;99.90;;;;;;5067104;28;20878;-57
2023/01/09 10:32:26;;;;;;;1.27;0.40;;;8.80;99.90;;;;;;5062969;28;20504;-57
2023/01/09 10:35:04;;;;;;;0.50;0.20;;;8.80;99.90;;;;;;5060293;28;20437;-55
2023/01/09 10:37:38;;;;;;;1.00;0.30;;;8.80;99.90;;;;;;5068029;28;20882;-56
2023/01/09 10:40:13;;;;;;;1.30;0.20;;;8.80;99.90;;;;;;5057186;28;20431;-57
2023/01/09 10:42:46;;;;;;;0.50;0.20;;;8.80;99.90;;;;;;5069026;28;20935;-55
2023/01/09 10:45:19;;;;;;;0.57;0.20;;;8.80;99.90;;;;;;5057568;28;20433;-56
2023/01/09 10:47:47;;;;;;;1.30;0.20;;;8.70;99.90;;;;;;5068365;28;20423;-55
2023/01/09 10:50:21;;;;;;;1.13;0.20;;;8.70;99.90;;;;;;5070637;28;20528;-56
2023/01/09 10:52:52;;;;;;;2.70;0.30;;;8.70;99.90;;;;;;5064209;28;20498;-55
2023/01/09 10:55:32;;;;;;;0.90;0.30;;;8.50;99.90;;;;;;5066846;28;20529;-54
2023/01/09 10:58:09;;;;;;;2.50;0.50;;;8.70;99.90;;;;;;5060369;28;20524;-56
2023/01/09 11:00:39;;;;;;;1.40;0.47;;;8.80;99.90;;;;;;5068352;28;20422;-55
2023/01/09 11:03:06;;;;;;;0.65;0.30;;;8.70;99.90;;;;;;5065220;28;20431;-57
2023/01/09 11:05:35;;;;;;;0.80;0.30;;;8.70;99.90;;;;;;5067793;28;20863;-53
2023/01/09 11:08:13;;;;;;;0.60;0.30;;;8.70;99.90;;;;;;5064682;28;20435;-55
2023/01/09 11:10:49;;;;;;;1.00;0.30;;;8.60;99.90;;;;;;5069209;28;20522;-54
2023/01/09 11:13:21;;;;;;;1.00;0.28;;;8.50;99.90;;;;;;5068189;28;20530;-55
2023/01/09 11:16:04;;;;;;;0.50;0.20;;;8.50;99.90;;;;;;5066419;28;20437;-56
2023/01/09 11:18:32;;;;;;;1.25;0.20;;;8.50;99.90;;;;;;5056542;28;20747;-56
2023/01/09 11:21:29;;;;;;;1.30;0.30;;;8.60;99.90;;;;;;5069870;28;20436;-54
2023/01/09 11:24:16;;;;;;;0.60;0.20;;;8.60;99.90;;;;;;5054947;28;20878;-53
2023/01/09 11:26:44;;;;;;;0.60;0.20;;;8.70;99.90;;;;;;5053734;28;20433;-56
2023/01/09 11:29:13;;;;;;;1.42;0.30;;;8.80;99.90;;;;;;5054534;28;20441;-54
2023/01/09 11:31:41;;;;;;;0.68;0.20;;;8.70;99.90;;;;;;5059079;28;20524;-55
2023/01/09 11:34:16;;;;;;;1.10;0.27;;;8.70;99.90;;;;;;5066820;28;20856;-50
2023/01/09 11:36:44;;;;;;;1.10;0.20;;;9.00;99.90;;;;;;5055196;28;20409;-51
2023/01/09 11:39:22;;;;;;;1.98;0.47;;;8.90;99.90;;;;;;5067851;28;20883;-53
2023/01/09 11:41:54;;;;;;;1.90;0.30;;;8.90;99.90;;;;;;5071396;28;20746;-56
2023/01/09 11:44:22;;;;;;;2.40;0.50;;;9.00;99.90;;;;;;5067096;28;20851;-55
2023/01/09 11:46:49;;;;;;;0.80;0.30;;;9.00;99.90;;;;;;5057659;28;20840;-54
2023/01/09 11:49:22;;;;;;;0.60;0.20;;;9.00;99.90;;;;;;5059907;28;20432;-55
2023/01/09 11:52:14;;;;;;;1.50;0.30;;;8.90;99.90;;;;;;5070904;28;20518;-57
2023/01/09 11:54:47;;;;;;;0.80;0.20;;;8.90;99.90;;;;;;5067029;28;20426;-55
2023/01/09 11:57:15;;;;;;;0.63;0.22;;;8.80;99.90;;;;;;5067585;28;20427;-55
2023/01/09 11:59:42;;;;;;;2.40;0.80;;;8.90;99.90;;;;;;5066644;28;20460;-55
2023/01/09 12:02:59;;;;;;;0.65;0.20;;;8.90;99.90;;;;;;5063799;28;20502;-56
2023/01/09 12:05:37;;;;;;;1.07;0.30;;;9.00;99.90;;;;;;4982245;28;20434;-54
2023/01/09 12:08:18;;;;;;;1.38;0.20;;;9.20;99.90;;;;;;4984123;28;20509;-55
2023/01/09 12:11:12;;;;;;;1.42;0.20;;;9.30;99.90;;;;;;5013261;28;20521;-56
2023/01/09 12:13:56;;;;;;;0.70;0.20;;;9.30;99.90;;;;;;5019419;28;20440;-54
2023/01/09 12:16:29;;;;;;;0.73;0.20;;;9.30;99.90;;;;;;5024376;28;20498;-57
2023/01/09 12:19:08;;;;;;;4.90;0.30;;;9.30;99.90;;;;;;5017923;28;20494;-60
2023/01/09 12:21:36;;;;;;;1.10;0.60;;;9.40;99.90;;;;;;5025329;28;20427;-55
2023/01/09 12:24:28;;;;;;;1.20;0.30;;;9.50;99.90;;;;;;5026512;28;20458;-54
2023/01/09 12:27:08;;;;;;;0.98;0.20;;;9.60;99.90;;;;;;5025640;28;20437;-53
2023/01/09 12:30:05;;;;;;;0.47;0.20;;;9.60;99.90;;;;;;5016493;28;20864;-56
2023/01/09 12:32:44;;;;;;;0.70;0.20;;;9.60;99.90;;;;;;5007245;28;20529;-60
2023/01/09 12:35:24;;;;;;;0.50;0.20;;;9.50;99.90;;;;;;5025192;28;20746;-56
2023/01/09 12:38:06;;;;;;;2.70;0.25;;;9.40;99.90;;;;;;5027359;28;20450;-56
2023/01/09 12:41:01;;;;;;;1.00;0.20;;;9.30;99.90;;;;;;5017905;28;20428;-57
2023/01/09 12:43:38;;;;;;;0.60;0.20;;;9.30;99.90;;;;;;5027531;28;20517;-57
2023/01/09 12:46:16;;;;;;;0.40;0.20;;;9.40;99.90;;;;;;5022033;28;20436;-56
2023/01/09 12:49:02;;;;;;;1.13;0.30;;;9.60;99.90;;;;;;5025231;28;20526;-51
2023/01/09 12:51:35;;;;;;;1.90;0.20;;;9.70;99.90;;;;;;5021250;28;20431;-55
2023/01/09 12:54:06;;;;;;;0.43;0.20;;;9.70;99.90;;;;;;5024285;28;20794;-56
2023/01/09 12:56:37;;;;;;;1.00;0.20;;;9.60;99.90;;;;;;5026466;28;20439;-55
2023/01/09 12:59:28;;;;;;;1.25;0.30;;;9.40;99.90;;;;;;5017661;28;20448;-53
2023/01/09 13:02:02;;;;;;;0.90;0.28;;;9.50;99.90;;;;;;5024687;28;20442;-54
2023/01/09 13:04:33;;;;;;;0.57;0.20;;;9.50;99.90;;;;;;5033099;28;20481;-56
2023/01/09 13:07:04;;;;;;;1.08;0.20;;;9.30;99.90;;;;;;5012604;28;20870;-53
2023/01/09 13:09:39;;;;;;;1.27;0.40;;;9.30;99.90;;;;;;5053122;28;21058;-54
2023/01/09 13:12:12;;;;;;;0.60;0.20;;;9.30;99.90;;;;;;5061251;28;20547;-55
2023/01/09 13:14:49;;;;;;;0.90;0.30;;;9.40;99.90;;;;;;5072354;28;20827;-52
2023/01/09 13:17:23;;;;;;;1.27;0.40;;;9.50;99.90;;;;;;5058293;28;20507;-52
2023/01/09 13:19:52;;;;;;;0.50;0.28;;;9.50;99.90;;;;;;5074669;28;20427;-57
2023/01/09 13:22:20;;;;;;;0.50;0.20;;;9.50;99.90;;;;;;5068083;28;20429;-56
2023/01/09 13:25:12;;;;;;;1.10;0.20;;;9.50;99.90;;;;;;5061482;28;20869;-59
2023/01/09 13:27:41;;;;;;;0.50;0.20;;;9.40;99.90;;;;;;5050533;28;20425;-58
2023/01/09 13:30:21;;;;;;;0.50;0.20;;;9.30;99.90;;;;;;5059043;28;20530;-53
2023/01/09 13:33:00;;;;;;;0.90;0.20;;;9.40;99.90;;;;;;5073476;28;20518;-57
2023/01/09 13:35:27;;;;;;;1.55;0.20;;;9.30;99.90;;;;;;5060551;28;20512;-57
2023/01/09 13:37:54;;;;;;;1.10;0.20;;;9.20;99.90;;;;;;5063620;28;20443;-57
2023/01/09 13:40:29;;;;;;;1.60;0.20;;;9.10;99.90;;;;;;5072362;28;20502;-56
2023/01/09 13:42:58;;;;;;;0.60;0.20;;;9.10;99.90;;;;;;5071433;28;20424;-57
2023/01/09 13:45:30;;;;;;;0.63;0.10;;;8.90;99.90;;;;;;5068055;28;20504;-58